Time;durP1;ratioP1;P1;durP2;ratioP2;P2;SDS_P1;SDS_P2;PMS_P1;PMS_P2;Temp;Humidity;BMP_temperature;BMP_pressure;BME280_temperature;BME280_humidity;BME280_pressure;Samples;Min_cycle;Max_cycle;Signal;HPM_P1;HPM_P2
2022/05/05 00:02:16;;;;;;;20.30;13.57;;;13.20;99.90;;;;;;5070166;28;20607;-52
2022/05/05 00:04:44;;;;;;;15.20;13.50;;;13.20;99.90;;;;;;5070743;28;20205;-52
2022/05/05 00:07:14;;;;;;;16.73;14.33;;;13.20;99.90;;;;;;5070946;28;20726;-52
2022/05/05 00:09:42;;;;;;;18.13;13.97;;;13.20;99.90;;;;;;5059929;28;20209;-52
2022/05/05 00:14:57;;;;;;;20.47;14.47;;;13.10;99.90;;;;;;5051070;28;20690;-53
2022/05/05 00:17:26;;;;;;;14.03;10.17;;;13.10;99.90;;;;;;5051749;28;20229;-52
2022/05/05 00:19:54;;;;;;;14.87;10.33;;;13.10;99.90;;;;;;5055618;28;20585;-52
2022/05/05 00:22:24;;;;;;;19.00;10.43;;;13.10;99.90;;;;;;5071034;28;20209;-53
2022/05/05 00:24:52;;;;;;;14.87;9.93;;;13.10;99.90;;;;;;5071187;28;20208;-52
2022/05/05 00:27:22;;;;;;;15.80;10.83;;;13.20;99.90;;;;;;5071341;28;20225;-52
2022/05/05 00:29:51;;;;;;;15.70;11.30;;;13.20;99.90;;;;;;5071059;28;20205;-52
2022/05/05 00:32:20;;;;;;;12.93;9.70;;;13.20;99.90;;;;;;5070704;28;20208;-53
2022/05/05 00:34:48;;;;;;;14.20;9.27;;;13.20;99.90;;;;;;5071295;28;20213;-52
2022/05/05 00:37:16;;;;;;;11.23;8.03;;;13.10;99.90;;;;;;5071114;28;20278;-52
2022/05/05 00:39:45;;;;;;;11.77;7.97;;;13.10;99.90;;;;;;5071294;28;20201;-52
2022/05/05 00:42:15;;;;;;;10.47;7.20;;;13.00;99.90;;;;;;5070377;28;20205;-52
2022/05/05 00:44:44;;;;;;;11.27;7.60;;;12.90;99.90;;;;;;5070978;28;20728;-52
2022/05/05 00:47:16;;;;;;;12.57;8.53;;;12.80;99.90;;;;;;5070725;28;20767;-52
2022/05/05 00:49:47;;;;;;;13.23;8.27;;;12.70;99.90;;;;;;5071371;28;20205;-54
2022/05/05 00:52:15;;;;;;;12.90;9.30;;;12.70;99.90;;;;;;5070725;28;20242;-52
2022/05/05 00:54:44;;;;;;;13.53;9.13;;;12.60;99.90;;;;;;5069790;28;20266;-53
2022/05/05 00:57:14;;;;;;;12.30;8.60;;;12.50;99.90;;;;;;5070715;28;20773;-53
2022/05/05 00:59:44;;;;;;;12.03;8.40;;;12.50;99.90;;;;;;5070591;28;20204;-52
2022/05/05 01:02:13;;;;;;;11.37;8.03;;;12.40;99.90;;;;;;5070765;28;20584;-52
2022/05/05 01:04:42;;;;;;;13.67;8.07;;;12.30;99.90;;;;;;5070863;28;20216;-52
2022/05/05 01:07:10;;;;;;;12.17;8.43;;;12.20;99.90;;;;;;5070589;28;20320;-52
2022/05/05 01:09:40;;;;;;;10.23;8.20;;;12.20;99.90;;;;;;5070409;28;20255;-52
2022/05/05 01:12:11;;;;;;;10.20;7.20;;;12.10;99.90;;;;;;5070187;28;20216;-52
2022/05/05 01:14:39;;;;;;;10.20;6.97;;;12.10;99.90;;;;;;5070785;28;20204;-53
2022/05/05 01:17:08;;;;;;;10.73;7.60;;;12.00;99.90;;;;;;5070833;28;20221;-52
2022/05/05 01:19:36;;;;;;;13.77;7.77;;;11.80;99.90;;;;;;5070665;28;20675;-52
2022/05/05 01:22:06;;;;;;;12.47;7.87;;;11.80;99.90;;;;;;5070205;28;20213;-52
2022/05/05 01:30:06;;;;;;;9.57;6.80;;;11.60;99.90;;;;;;5039705;28;20213;-52
2022/05/05 01:32:34;;;;;;;12.43;7.53;;;11.50;99.90;;;;;;5070136;28;20220;-52
2022/05/05 01:35:03;;;;;;;10.90;7.53;;;11.40;99.90;;;;;;5070481;28;20213;-51
2022/05/05 01:37:33;;;;;;;13.10;7.63;;;11.40;99.90;;;;;;5070138;28;20733;-52
2022/05/05 01:40:01;;;;;;;10.87;7.13;;;11.30;99.90;;;;;;5070808;28;20205;-52
2022/05/05 01:42:29;;;;;;;11.13;7.37;;;11.30;99.90;;;;;;5069473;28;20212;-51
2022/05/05 01:44:57;;;;;;;11.10;7.80;;;11.30;99.90;;;;;;5066222;28;20259;-52
2022/05/05 01:47:25;;;;;;;17.57;8.73;;;11.20;99.90;;;;;;5050125;28;20817;-52
2022/05/05 01:49:58;;;;;;;13.17;7.90;;;11.20;99.90;;;;;;5050238;28;20702;-52
2022/05/05 01:52:27;;;;;;;13.27;8.20;;;11.00;99.90;;;;;;5050150;28;20186;-52
2022/05/05 01:54:57;;;;;;;10.80;9.13;;;11.00;99.90;;;;;;5052764;28;20217;-52
2022/05/05 01:57:25;;;;;;;12.50;8.67;;;10.90;99.90;;;;;;5054152;28;20222;-52
2022/05/05 01:59:53;;;;;;;14.17;9.70;;;10.80;99.90;;;;;;5053960;28;20259;-51
2022/05/05 02:02:22;;;;;;;16.17;9.40;;;10.70;99.90;;;;;;5053877;28;20649;-52
2022/05/05 02:04:51;;;;;;;18.50;9.83;;;10.60;99.90;;;;;;5054137;28;20209;-52
2022/05/05 02:07:19;;;;;;;16.63;9.30;;;10.60;99.90;;;;;;5053869;28;20383;-52
2022/05/05 02:09:47;;;;;;;13.97;9.43;;;10.50;99.90;;;;;;5067375;28;20208;-52
2022/05/05 02:12:17;;;;;;;11.33;8.80;;;10.60;99.90;;;;;;5073577;28;20201;-52
2022/05/05 02:14:45;;;;;;;16.13;9.93;;;10.60;99.90;;;;;;5073561;28;20250;-52
2022/05/05 02:17:13;;;;;;;15.13;9.30;;;10.60;99.90;;;;;;5073774;28;20221;-51
2022/05/05 02:19:41;;;;;;;12.37;9.13;;;10.50;99.90;;;;;;5074002;28;20609;-52
2022/05/05 02:22:09;;;;;;;13.03;9.20;;;10.50;99.90;;;;;;5073243;28;20657;-52
2022/05/05 02:24:37;;;;;;;13.97;9.37;;;10.40;99.90;;;;;;5073636;28;20259;-52
2022/05/05 02:27:06;;;;;;;14.03;9.03;;;10.40;99.90;;;;;;5073544;28;20282;-52
2022/05/05 02:29:35;;;;;;;15.67;9.50;;;10.40;99.90;;;;;;5073877;28;20266;-52
2022/05/05 02:32:04;;;;;;;15.70;9.60;;;10.40;99.90;;;;;;5073141;28;20800;-51
2022/05/05 02:34:32;;;;;;;14.53;9.63;;;10.30;99.90;;;;;;5073585;28;20235;-52
2022/05/05 02:39:46;;;;;;;16.87;10.47;;;10.10;99.90;;;;;;5072871;28;20205;-52
2022/05/05 02:42:14;;;;;;;23.43;10.57;;;10.00;99.90;;;;;;5073066;28;20208;-52
2022/05/05 02:44:43;;;;;;;17.93;10.77;;;10.00;99.90;;;;;;5072887;28;20621;-52
2022/05/05 02:47:12;;;;;;;18.97;10.37;;;9.90;99.90;;;;;;5073422;28;20228;-52
2022/05/05 02:49:40;;;;;;;14.97;10.20;;;10.00;99.90;;;;;;5073134;28;20261;-52
2022/05/05 02:52:09;;;;;;;15.13;10.07;;;9.90;99.90;;;;;;5072804;28;20212;-51
2022/05/05 02:54:51;;;;;;;15.47;10.67;;;9.90;99.90;;;;;;5072732;28;20246;-52
2022/05/05 02:57:20;;;;;;;16.93;10.27;;;9.80;99.90;;;;;;5073355;28;20232;-52
2022/05/05 02:59:50;;;;;;;17.40;10.63;;;9.70;99.90;;;;;;5073160;28;20547;-52
2022/05/05 03:02:19;;;;;;;17.50;11.37;;;9.70;99.90;;;;;;5072690;28;20205;-52
2022/05/05 03:04:47;;;;;;;19.43;11.33;;;9.70;99.90;;;;;;5072532;28;20629;-52
2022/05/05 03:07:16;;;;;;;19.90;11.27;;;9.60;99.90;;;;;;5072610;28;20291;-52
2022/05/05 03:09:44;;;;;;;16.87;10.10;;;9.60;99.90;;;;;;5067797;28;20250;-52
2022/05/05 03:12:12;;;;;;;20.50;12.17;;;9.60;99.90;;;;;;5072641;28;20262;-52
2022/05/05 03:14:41;;;;;;;18.33;11.70;;;9.50;99.90;;;;;;5072979;28;20212;-52
2022/05/05 03:17:10;;;;;;;20.53;13.03;;;9.50;99.90;;;;;;5072368;28;20689;-52
2022/05/05 03:19:38;;;;;;;17.70;11.97;;;9.50;99.90;;;;;;5072713;28;20212;-51
2022/05/05 03:22:06;;;;;;;20.63;12.80;;;9.40;99.90;;;;;;5072361;28;20205;-52
2022/05/05 03:24:34;;;;;;;18.70;11.77;;;9.30;99.90;;;;;;5072049;28;20962;-51
2022/05/05 03:27:04;;;;;;;19.00;12.57;;;9.30;99.90;;;;;;5072573;28;20227;-51
2022/05/05 03:29:33;;;;;;;19.60;12.73;;;9.30;99.90;;;;;;5072516;28;20222;-51
2022/05/05 03:32:01;;;;;;;19.63;12.87;;;9.20;99.90;;;;;;5071905;28;20270;-51
2022/05/05 03:34:31;;;;;;;18.57;13.00;;;9.20;99.90;;;;;;5072348;28;20213;-51
2022/05/05 03:36:59;;;;;;;21.53;13.63;;;9.20;99.90;;;;;;5072408;28;20581;-52
2022/05/05 03:39:27;;;;;;;22.37;13.67;;;9.20;99.90;;;;;;5072119;28;20254;-51
2022/05/05 03:41:55;;;;;;;21.77;13.83;;;9.20;99.90;;;;;;5072030;28;20691;-52
2022/05/05 03:44:23;;;;;;;20.53;14.17;;;9.20;99.90;;;;;;5072180;28;20735;-51
2022/05/05 03:46:51;;;;;;;19.47;11.83;;;9.20;99.90;;;;;;5060906;28;20305;-51
2022/05/05 03:49:19;;;;;;;18.07;12.90;;;9.20;99.90;;;;;;5072092;28;20208;-52
2022/05/05 03:51:49;;;;;;;22.53;13.37;;;9.10;99.90;;;;;;5071382;28;20751;-52
2022/05/05 03:54:17;;;;;;;21.20;13.33;;;9.10;99.90;;;;;;5071080;28;20216;-52
2022/05/05 03:56:45;;;;;;;18.13;12.67;;;9.10;99.90;;;;;;5071431;28;20229;-52
2022/05/05 03:59:13;;;;;;;19.10;12.87;;;9.00;99.90;;;;;;5071641;28;20266;-52
2022/05/05 04:01:41;;;;;;;19.53;13.10;;;9.00;99.90;;;;;;5071416;28;20215;-52
2022/05/05 04:04:10;;;;;;;19.00;13.27;;;9.00;99.90;;;;;;5071839;28;20203;-52
2022/05/05 04:06:38;;;;;;;22.50;13.27;;;9.00;99.90;;;;;;5071409;28;20237;-52
2022/05/05 04:09:07;;;;;;;25.30;14.33;;;9.10;99.90;;;;;;5071516;28;20208;-52
2022/05/05 04:11:35;;;;;;;22.60;14.27;;;9.00;99.90;;;;;;5071689;28;20962;-52
2022/05/05 04:14:04;;;;;;;23.17;15.20;;;9.00;99.90;;;;;;5071000;28;20616;-52
2022/05/05 04:16:32;;;;;;;23.97;14.77;;;9.00;99.90;;;;;;5070679;28;20224;-52
2022/05/05 04:19:03;;;;;;;23.13;14.23;;;9.00;99.90;;;;;;5071655;28;20616;-52
2022/05/05 04:21:31;;;;;;;20.17;14.17;;;9.00;99.90;;;;;;5071784;28;20208;-51
2022/05/05 04:23:59;;;;;;;22.47;14.67;;;9.00;99.90;;;;;;5070868;28;20216;-51
2022/05/05 04:26:29;;;;;;;23.97;14.57;;;9.00;99.90;;;;;;5071492;28;20220;-51
2022/05/05 04:28:58;;;;;;;20.53;13.70;;;9.00;99.90;;;;;;5071417;28;20626;-51
2022/05/05 04:31:29;;;;;;;19.43;13.73;;;9.40;99.90;;;;;;5071185;28;20674;-51
2022/05/05 04:33:57;;;;;;;19.23;13.90;;;9.70;99.90;;;;;;5070879;28;20189;-51
2022/05/05 04:36:26;;;;;;;20.40;12.97;;;10.20;99.90;;;;;;5071265;28;20233;-52
2022/05/05 04:38:54;;;;;;;19.17;13.03;;;10.70;99.90;;;;;;5071177;28;20696;-51
2022/05/05 04:41:23;;;;;;;22.13;13.80;;;10.80;99.90;;;;;;5071117;28;20209;-51
2022/05/05 04:43:52;;;;;;;19.13;12.50;;;11.10;99.90;;;;;;5070955;28;20225;-51
2022/05/05 04:46:20;;;;;;;17.30;12.20;;;11.60;99.90;;;;;;5070990;28;20737;-51
2022/05/05 04:48:49;;;;;;;21.17;13.23;;;12.00;99.90;;;;;;5070959;28;20237;-52
2022/05/05 04:51:17;;;;;;;15.03;11.90;;;12.40;99.90;;;;;;5071205;28;20282;-52
2022/05/05 04:53:46;;;;;;;16.00;11.70;;;12.70;99.90;;;;;;5069098;28;20293;-52
2022/05/05 04:56:14;;;;;;;19.40;12.77;;;12.70;99.90;;;;;;5071159;28;20290;-52
2022/05/05 04:58:42;;;;;;;16.17;11.77;;;12.20;99.90;;;;;;5070861;28;20350;-52
2022/05/05 05:01:11;;;;;;;20.30;12.90;;;11.80;99.90;;;;;;5070760;28;20262;-52
2022/05/05 05:03:40;;;;;;;15.20;12.03;;;11.30;99.90;;;;;;5070056;28;20212;-52
2022/05/05 05:06:10;;;;;;;18.30;12.67;;;11.20;99.90;;;;;;5070579;28;20221;-52
2022/05/05 05:08:39;;;;;;;22.03;12.93;;;11.30;99.90;;;;;;5070830;28;20221;-52
2022/05/05 05:11:07;;;;;;;15.90;12.57;;;11.40;99.90;;;;;;5070667;28;20255;-52
2022/05/05 05:13:36;;;;;;;17.80;12.20;;;11.30;99.90;;;;;;5070373;28;20220;-51
2022/05/05 05:16:06;;;;;;;17.10;12.27;;;11.30;99.90;;;;;;5070613;28;20262;-52
2022/05/05 05:18:55;;;;;;;17.33;12.90;;;11.50;99.90;;;;;;5070844;28;20270;-52
2022/05/05 05:21:24;;;;;;;18.60;13.57;;;11.50;99.90;;;;;;5070758;28;20204;-52
2022/05/05 05:23:52;;;;;;;19.47;13.83;;;11.50;99.90;;;;;;5070245;28;20212;-52
2022/05/05 05:26:20;;;;;;;18.37;13.80;;;11.50;99.90;;;;;;5070646;28;20224;-52
2022/05/05 05:28:48;;;;;;;18.40;14.10;;;11.50;99.90;;;;;;5072755;28;20224;-52
2022/05/05 05:31:17;;;;;;;21.43;14.40;;;11.90;99.90;;;;;;5074646;28;20204;-52
2022/05/05 05:33:45;;;;;;;22.47;14.37;;;12.20;99.90;;;;;;5074366;28;20204;-52
2022/05/05 05:36:15;;;;;;;18.80;12.97;;;13.00;99.90;;;;;;5074579;28;20638;-52
2022/05/05 05:38:43;;;;;;;17.53;12.77;;;14.30;99.90;;;;;;5074910;28;20201;-53
2022/05/05 05:41:11;;;;;;;18.93;13.23;;;14.90;99.90;;;;;;5074936;28;20201;-52
2022/05/05 05:43:40;;;;;;;16.30;13.00;;;14.50;99.90;;;;;;5073636;28;20254;-52
2022/05/05 05:46:09;;;;;;;17.97;12.47;;;14.40;99.90;;;;;;5074423;28;20735;-52
2022/05/05 05:48:38;;;;;;;17.27;12.40;;;14.10;99.90;;;;;;5074159;28;20971;-52
2022/05/05 05:51:06;;;;;;;17.17;12.57;;;13.80;99.90;;;;;;5074720;28;20262;-53
2022/05/05 05:53:36;;;;;;;19.00;12.97;;;13.70;99.90;;;;;;5073965;28;20578;-52
2022/05/05 05:56:04;;;;;;;19.83;13.17;;;13.70;99.90;;;;;;5074040;28;20274;-52
2022/05/05 05:58:32;;;;;;;14.57;11.97;;;13.80;99.90;;;;;;5074478;28;20205;-53
2022/05/05 06:01:00;;;;;;;16.93;11.83;;;13.80;99.90;;;;;;5073897;28;20739;-53
2022/05/05 06:06:14;;;;;;;17.10;11.68;;;14.40;99.90;;;;;;5073803;28;20233;-52
2022/05/05 06:08:44;;;;;;;16.13;11.65;;;14.90;99.90;;;;;;5074016;28;20223;-52
2022/05/05 06:11:12;;;;;;;18.50;12.10;;;15.00;99.90;;;;;;5073870;28;20254;-52
2022/05/05 06:13:40;;;;;;;15.60;10.85;;;15.00;99.90;;;;;;5073515;28;20212;-53
2022/05/05 06:16:09;;;;;;;17.77;11.60;;;15.60;99.90;;;;;;5074123;28;20209;-53
2022/05/05 06:18:38;;;;;;;14.90;10.68;;;16.30;99.90;;;;;;5073795;28;20215;-52
2022/05/05 06:21:07;;;;;;;17.25;11.52;;;16.70;99.90;;;;;;5073019;28;20686;-53
2022/05/05 06:23:37;;;;;;;18.20;11.80;;;16.90;99.90;;;;;;5073068;28;20205;-52
2022/05/05 06:26:07;;;;;;;16.55;11.05;;;17.20;99.90;;;;;;5074036;28;20247;-53
2022/05/05 06:28:35;;;;;;;16.48;10.85;;;17.50;99.90;;;;;;5073392;28;20232;-53
2022/05/05 06:31:04;;;;;;;15.00;11.43;;;18.00;99.90;;;;;;5073472;28;20270;-53
2022/05/05 06:33:32;;;;;;;13.93;10.23;;;18.60;99.90;;;;;;5072914;28;20204;-53
2022/05/05 06:36:00;;;;;;;13.77;11.13;;;18.70;99.90;;;;;;5073445;28;20578;-53
2022/05/05 06:38:29;;;;;;;14.10;10.88;;;19.00;99.90;;;;;;5072374;28;20213;-53
2022/05/05 06:40:57;;;;;;;13.15;10.55;;;19.20;99.90;;;;;;5073139;28;20620;-52
2022/05/05 06:43:26;;;;;;;17.85;11.25;;;19.30;99.90;;;;;;5072853;28;20622;-53
2022/05/05 06:45:55;;;;;;;15.20;11.00;;;19.50;99.90;;;;;;5073090;28;20202;-53
2022/05/05 06:49:19;;;;;;;16.50;10.88;;;19.70;99.90;;;;;;5073792;28;20712;-53
2022/05/05 06:51:47;;;;;;;15.50;10.50;;;19.90;99.90;;;;;;5071592;28;20217;-53
2022/05/05 06:54:15;;;;;;;16.15;10.57;;;20.00;99.90;;;;;;5072680;28;20610;-53
2022/05/05 06:56:43;;;;;;;14.68;11.25;;;20.10;99.90;;;;;;5073218;28;20228;-53
2022/05/05 06:59:13;;;;;;;13.73;10.07;;;20.40;99.90;;;;;;5073462;28;20247;-53
2022/05/05 07:01:52;;;;;;;14.70;9.88;;;20.50;99.90;;;;;;5072841;28;20209;-53
2022/05/05 07:07:22;;;;;;;13.50;8.63;;;20.90;99.90;;;;;;5072032;28;20828;-53
2022/05/05 07:12:36;;;;;;;12.80;8.38;;;20.90;99.90;;;;;;5073201;28;20213;-52
2022/05/05 07:15:07;;;;;;;11.35;7.70;;;21.30;99.90;;;;;;5072322;28;20209;-53
2022/05/05 07:17:35;;;;;;;11.65;8.25;;;21.20;98.50;;;;;;5073433;28;20271;-53
2022/05/05 07:20:04;;;;;;;12.32;7.75;;;20.70;97.60;;;;;;5073198;28;20251;-53
2022/05/05 07:22:32;;;;;;;13.63;7.75;;;21.00;97.70;;;;;;5072340;28;20687;-53
2022/05/05 07:25:00;;;;;;;12.80;8.20;;;21.60;97.00;;;;;;5072841;28;20212;-53
2022/05/05 07:27:29;;;;;;;13.25;7.63;;;21.80;96.70;;;;;;5072426;28;20228;-52
2022/05/05 07:29:57;;;;;;;9.52;6.80;;;21.70;96.80;;;;;;5072416;28;20282;-53
2022/05/05 07:32:27;;;;;;;13.52;7.28;;;21.70;95.50;;;;;;5072366;28;20205;-53
2022/05/05 07:35:00;;;;;;;10.65;7.45;;;22.10;95.30;;;;;;5072497;28;20193;-53
2022/05/05 07:37:29;;;;;;;9.25;6.60;;;22.00;94.20;;;;;;5072388;28;20645;-53
2022/05/05 07:40:00;;;;;;;9.68;8.05;;;21.60;92.40;;;;;;5072613;28;20248;-53
2022/05/05 07:42:30;;;;;;;11.38;8.13;;;21.70;92.80;;;;;;5071770;28;20209;-52
2022/05/05 07:44:58;;;;;;;10.05;7.72;;;21.60;92.90;;;;;;5072244;28;20204;-52
2022/05/05 07:47:28;;;;;;;13.63;8.80;;;21.30;93.20;;;;;;5072500;28;20323;-53
2022/05/05 07:49:56;;;;;;;13.02;8.88;;;21.30;93.10;;;;;;5066984;28;20265;-53
2022/05/05 07:52:25;;;;;;;12.00;8.85;;;21.50;93.10;;;;;;5050607;28;20682;-52
2022/05/05 07:54:53;;;;;;;14.07;9.00;;;21.60;93.70;;;;;;5052515;28;20213;-51
2022/05/05 07:57:22;;;;;;;12.60;9.15;;;21.20;92.40;;;;;;5054012;28;20650;-53
2022/05/05 07:59:51;;;;;;;13.85;9.00;;;20.90;93.40;;;;;;5072287;28;20225;-52
2022/05/05 08:02:21;;;;;;;14.20;8.52;;;20.40;93.20;;;;;;5071425;28;20201;-52
2022/05/05 08:04:50;;;;;;;14.85;9.98;;;20.40;93.30;;;;;;5071460;28;20204;-52
2022/05/05 08:07:19;;;;;;;14.77;8.52;;;20.20;92.80;;;;;;5071611;28;20243;-52
2022/05/05 08:09:47;;;;;;;13.75;9.05;;;20.20;93.80;;;;;;5071453;28;20221;-52
2022/05/05 08:12:31;;;;;;;12.88;8.98;;;20.00;93.30;;;;;;5071391;28;20224;-51
2022/05/05 08:15:01;;;;;;;13.02;8.10;;;19.80;94.40;;;;;;5071361;28;20209;-53
2022/05/05 08:17:29;;;;;;;13.43;8.70;;;19.90;94.40;;;;;;5071360;28;20236;-52
2022/05/05 08:19:59;;;;;;;13.02;8.20;;;19.80;93.50;;;;;;5071469;28;20201;-52
2022/05/05 08:22:27;;;;;;;16.15;8.68;;;19.70;94.30;;;;;;5071318;28;20205;-52
2022/05/05 08:30:26;;;;;;;13.63;8.30;;;19.40;93.80;;;;;;5070876;28;20697;-52
2022/05/05 08:32:54;;;;;;;13.20;8.80;;;19.50;95.10;;;;;;5070886;28;20343;-51
2022/05/05 08:35:24;;;;;;;14.25;8.23;;;19.60;96.00;;;;;;5062843;28;20795;-52
2022/05/05 08:37:52;;;;;;;14.60;8.15;;;19.70;94.70;;;;;;5051328;28;20268;-52
2022/05/05 08:40:24;;;;;;;12.80;8.35;;;19.70;94.90;;;;;;5051310;28;20225;-51
2022/05/05 08:42:52;;;;;;;15.10;8.32;;;19.60;93.10;;;;;;5050272;28;20255;-53
2022/05/05 08:45:21;;;;;;;10.27;7.60;;;19.50;93.30;;;;;;5057348;28;20193;-51
2022/05/05 08:47:49;;;;;;;14.25;8.98;;;19.70;93.70;;;;;;5066125;28;20226;-52
2022/05/05 08:50:21;;;;;;;11.32;8.13;;;19.70;92.90;;;;;;5061143;28;20274;-52
2022/05/05 08:52:51;;;;;;;11.73;8.20;;;19.80;93.40;;;;;;5071983;28;20209;-52
2022/05/05 08:55:21;;;;;;;12.15;8.45;;;19.80;93.00;;;;;;5071682;28;20219;-52
2022/05/05 08:57:49;;;;;;;9.50;7.03;;;19.70;92.90;;;;;;5071189;28;20243;-52
2022/05/05 09:00:18;;;;;;;10.65;8.23;;;19.70;92.40;;;;;;5071051;28;20227;-50
2022/05/05 09:02:46;;;;;;;12.32;8.10;;;19.60;92.10;;;;;;5070078;28;20213;-52
2022/05/05 09:05:15;;;;;;;10.48;7.30;;;19.70;93.00;;;;;;5070838;28;20271;-52
2022/05/05 09:07:48;;;;;;;14.73;8.43;;;19.70;93.80;;;;;;5070983;28;20244;-52
2022/05/05 09:10:19;;;;;;;10.27;8.07;;;19.50;93.10;;;;;;5070398;28;20682;-52
2022/05/05 09:12:58;;;;;;;12.70;8.20;;;19.60;92.10;;;;;;5070317;28;20216;-52
2022/05/05 09:15:34;;;;;;;12.23;8.15;;;19.60;92.40;;;;;;5070655;28;20227;-51
2022/05/05 09:18:13;;;;;;;11.68;8.35;;;19.80;93.80;;;;;;5070561;28;20225;-51
2022/05/05 09:20:43;;;;;;;11.32;8.00;;;19.70;92.10;;;;;;5070027;28;20289;-52
2022/05/05 09:23:28;;;;;;;10.52;7.53;;;19.70;91.60;;;;;;5069855;28;20185;-52
2022/05/05 09:25:58;;;;;;;11.40;8.00;;;19.80;91.80;;;;;;5070524;28;20630;-52
2022/05/05 09:28:30;;;;;;;12.15;7.80;;;19.80;92.10;;;;;;5070245;28;20201;-51
2022/05/05 09:31:05;;;;;;;12.63;7.45;;;19.80;94.00;;;;;;5070576;28;20250;-53
2022/05/05 09:33:51;;;;;;;10.48;7.45;;;19.90;95.00;;;;;;5070088;28;20278;-52
2022/05/05 09:36:28;;;;;;;10.27;6.60;;;19.90;93.20;;;;;;5070834;28;20279;-52
2022/05/05 09:38:58;;;;;;;11.25;7.10;;;20.00;95.10;;;;;;5070662;28;20205;-51
2022/05/05 09:41:29;;;;;;;9.35;6.90;;;20.00;93.80;;;;;;5070817;28;20327;-51
2022/05/05 09:43:58;;;;;;;10.52;7.10;;;19.80;94.00;;;;;;5070212;28;20223;-52
2022/05/05 09:46:36;;;;;;;10.02;6.88;;;19.80;94.00;;;;;;5069061;28;20221;-52
2022/05/05 09:49:12;;;;;;;11.70;7.68;;;19.80;94.30;;;;;;5070495;28;20841;-51
2022/05/05 09:51:43;;;;;;;11.90;7.95;;;20.00;93.80;;;;;;5069618;28;20744;-52
2022/05/05 09:59:50;;;;;;;12.60;8.40;;;20.50;93.80;;;;;;5070313;28;20248;-52
2022/05/05 10:05:22;;;;;;;10.15;7.07;;;20.80;93.00;;;;;;5064423;28;20201;-53
2022/05/05 10:07:53;;;;;;;10.73;7.35;;;20.80;92.90;;;;;;5068480;28;20225;-52
2022/05/05 10:10:22;;;;;;;11.80;7.47;;;20.70;92.00;;;;;;5070128;28;20243;-53
2022/05/05 10:12:52;;;;;;;12.82;7.88;;;20.60;92.10;;;;;;5069357;28;20634;-52
2022/05/05 10:15:21;;;;;;;15.38;7.45;;;20.50;92.20;;;;;;5073136;28;20634;-52
2022/05/05 10:17:55;;;;;;;12.35;7.15;;;20.20;91.50;;;;;;5073235;28;20712;-52
2022/05/05 10:20:24;;;;;;;11.73;7.82;;;20.00;91.90;;;;;;5073525;28;20326;-52
2022/05/05 10:22:58;;;;;;;12.68;7.30;;;19.90;92.00;;;;;;5073110;28;20713;-52
2022/05/05 10:25:27;;;;;;;9.90;7.07;;;19.80;92.30;;;;;;5073685;28;20239;-52
2022/05/05 10:27:56;;;;;;;10.63;6.70;;;19.90;93.20;;;;;;5073673;28;20251;-52
2022/05/05 10:30:34;;;;;;;9.55;6.60;;;20.10;92.30;;;;;;5073506;28;20221;-52
2022/05/05 10:33:03;;;;;;;8.30;6.63;;;20.10;93.30;;;;;;5073435;28;20239;-52
2022/05/05 10:35:42;;;;;;;9.45;6.40;;;20.10;92.70;;;;;;5073676;28;20205;-52
2022/05/05 10:38:38;;;;;;;8.98;5.95;;;20.10;93.00;;;;;;5073586;28;20275;-52
2022/05/05 10:41:40;;;;;;;12.15;7.50;;;20.00;93.20;;;;;;5073447;28;20233;-51
2022/05/05 10:44:23;;;;;;;10.38;6.50;;;19.90;93.50;;;;;;5073121;28;20575;-54
2022/05/05 10:47:01;;;;;;;8.43;6.03;;;19.80;92.50;;;;;;5053508;28;20343;-52
2022/05/05 10:49:49;;;;;;;10.52;6.45;;;19.80;92.40;;;;;;5054184;28;20193;-52
2022/05/05 10:52:50;;;;;;;9.80;6.90;;;19.80;92.00;;;;;;5072819;28;20240;-52
2022/05/05 10:55:29;;;;;;;10.13;7.45;;;19.80;92.70;;;;;;5073257;28;20221;-52
2022/05/05 10:58:50;;;;;;;8.60;6.40;;;19.90;91.50;;;;;;5072588;28;20733;-51
2022/05/05 11:01:20;;;;;;;14.05;7.05;;;19.90;91.00;;;;;;5072932;28;20230;-52
2022/05/05 11:04:25;;;;;;;9.27;6.35;;;19.80;90.90;;;;;;5072604;28;20213;-52
2022/05/05 11:07:30;;;;;;;10.07;6.82;;;19.90;92.10;;;;;;5063088;28;20233;-52
2022/05/05 11:10:00;;;;;;;8.63;6.28;;;20.10;92.80;;;;;;5072726;28;20200;-52
2022/05/05 11:12:36;;;;;;;8.48;6.65;;;20.10;92.80;;;;;;5072113;28;20279;-51
2022/05/05 11:23:47;;;;;;;8.32;5.93;;;20.10;91.90;;;;;;5066567;28;20576;-52
2022/05/05 11:26:17;;;;;;;9.07;6.18;;;20.10;91.40;;;;;;5072110;28;20256;-51
2022/05/05 11:28:47;;;;;;;11.85;6.88;;;20.10;92.00;;;;;;5071463;28;20232;-52
2022/05/05 11:31:22;;;;;;;9.27;6.72;;;20.20;92.70;;;;;;5072549;28;20221;-52
2022/05/05 11:33:55;;;;;;;9.50;6.40;;;20.10;93.00;;;;;;5072140;28;20292;-52
2022/05/05 11:36:27;;;;;;;8.40;6.28;;;20.10;93.50;;;;;;5072590;28;20604;-52
2022/05/05 11:38:56;;;;;;;12.23;6.50;;;20.20;93.00;;;;;;5072445;28;20216;-52
2022/05/05 11:41:24;;;;;;;10.43;6.35;;;20.30;94.10;;;;;;5072389;28;20662;-52
2022/05/05 11:46:39;;;;;;;13.02;6.53;;;20.30;92.80;;;;;;5072371;28;20258;-52
2022/05/05 11:49:08;;;;;;;10.13;7.03;;;20.30;92.90;;;;;;5072176;28;20751;-52
2022/05/05 11:51:37;;;;;;;9.60;7.22;;;20.20;92.40;;;;;;5071622;28;20221;-52
2022/05/05 11:54:08;;;;;;;10.70;7.43;;;20.40;92.00;;;;;;5072094;28;20212;-52
2022/05/05 11:56:38;;;;;;;9.32;6.70;;;20.50;92.00;;;;;;5072078;28;20252;-52
2022/05/05 12:02:01;;;;;;;9.75;6.82;;;21.10;94.10;;;;;;5071398;28;20193;-53
2022/05/05 12:04:31;;;;;;;11.20;6.88;;;21.20;93.40;;;;;;5071728;28;20208;-52
2022/05/05 12:07:00;;;;;;;10.88;6.72;;;21.40;91.80;;;;;;5071622;28;20235;-53
2022/05/05 12:09:28;;;;;;;10.77;6.50;;;21.30;91.50;;;;;;5071720;28;20205;-52
2022/05/05 12:12:13;;;;;;;8.57;6.65;;;21.30;91.40;;;;;;5071406;28;20216;-52
2022/05/05 12:14:42;;;;;;;11.68;7.15;;;21.10;91.50;;;;;;5068311;28;20232;-52
2022/05/05 12:17:14;;;;;;;10.57;7.57;;;21.00;92.70;;;;;;5051114;28;20222;-52
2022/05/05 12:19:51;;;;;;;10.32;6.60;;;21.20;91.50;;;;;;5050801;28;20206;-53
2022/05/05 12:22:28;;;;;;;12.07;6.72;;;21.40;92.90;;;;;;5050678;28;20647;-53
2022/05/05 12:25:04;;;;;;;8.75;6.72;;;21.40;90.60;;;;;;5050795;28;20255;-52
2022/05/05 12:27:33;;;;;;;12.02;7.18;;;21.40;92.10;;;;;;5050499;28;20264;-53
2022/05/05 12:30:01;;;;;;;11.48;6.90;;;21.50;93.40;;;;;;5051272;28;20209;-53
2022/05/05 12:32:31;;;;;;;9.90;6.93;;;21.40;91.60;;;;;;5050385;28;20321;-53
2022/05/05 12:35:07;;;;;;;13.32;7.20;;;21.50;92.90;;;;;;5050628;28;20279;-53
2022/05/05 12:37:35;;;;;;;11.52;6.90;;;21.40;92.60;;;;;;5050760;28;20229;-53
2022/05/05 12:40:05;;;;;;;12.55;6.80;;;21.30;92.10;;;;;;5051094;28;20625;-53
2022/05/05 12:42:41;;;;;;;10.38;6.45;;;21.30;91.20;;;;;;5050907;28;20225;-53
2022/05/05 12:45:15;;;;;;;12.80;7.00;;;21.00;90.60;;;;;;5064748;28;20200;-52
2022/05/05 12:47:44;;;;;;;9.75;6.50;;;20.90;91.00;;;;;;5071054;28;20256;-53
2022/05/05 12:50:31;;;;;;;9.57;6.53;;;20.80;92.70;;;;;;5070165;28;20213;-53
2022/05/05 13:01:24;;;;;;;8.80;6.47;;;21.10;92.00;;;;;;5050424;28;20858;-53
2022/05/05 13:03:54;;;;;;;7.57;6.00;;;21.10;91.90;;;;;;5050340;28;20631;-52
2022/05/05 13:06:24;;;;;;;8.63;5.90;;;21.30;92.40;;;;;;5050662;28;20240;-52
2022/05/05 13:08:53;;;;;;;8.88;6.75;;;21.30;91.30;;;;;;5055521;28;20197;-52
2022/05/05 13:11:22;;;;;;;8.02;5.68;;;21.20;90.00;;;;;;5070924;28;20205;-53
2022/05/05 13:13:52;;;;;;;9.05;6.30;;;21.10;89.50;;;;;;5070044;28;20270;-52
2022/05/05 13:16:27;;;;;;;10.32;5.85;;;20.80;90.40;;;;;;5070744;28;20262;-52
2022/05/05 13:18:57;;;;;;;8.07;5.97;;;20.60;91.10;;;;;;5071192;28;20191;-52
2022/05/05 13:21:27;;;;;;;9.07;6.43;;;20.60;90.20;;;;;;5070455;28;20205;-52
2022/05/05 13:23:56;;;;;;;7.72;5.43;;;20.50;90.60;;;;;;5070645;28;20219;-53
2022/05/05 13:26:25;;;;;;;8.60;5.50;;;20.50;91.00;;;;;;5070653;28;20271;-52
2022/05/05 13:28:53;;;;;;;8.13;5.50;;;20.60;92.00;;;;;;5071040;28;20244;-53
2022/05/05 13:31:21;;;;;;;10.85;5.82;;;20.70;92.00;;;;;;5054552;28;20244;-53
2022/05/05 13:33:49;;;;;;;9.23;6.50;;;20.70;91.30;;;;;;5049440;28;20737;-52
2022/05/05 13:36:17;;;;;;;8.18;5.90;;;20.60;90.40;;;;;;5053526;28;20320;-53
2022/05/05 13:38:48;;;;;;;8.93;6.20;;;20.60;90.20;;;;;;5069841;28;20259;-52
2022/05/05 13:41:32;;;;;;;7.50;5.45;;;20.70;91.90;;;;;;5069359;28;20725;-53
2022/05/05 13:44:00;;;;;;;7.18;5.28;;;20.70;90.90;;;;;;5069642;28;20205;-52
2022/05/05 13:46:29;;;;;;;8.43;5.47;;;20.70;89.80;;;;;;5069198;28;20221;-53
2022/05/05 13:48:57;;;;;;;8.30;5.93;;;20.70;90.80;;;;;;5071036;28;20208;-52
2022/05/05 13:51:25;;;;;;;7.15;5.25;;;20.70;90.20;;;;;;5074321;28;20209;-53